createdAt,value
2022-11-10T00:00:49.527Z,2.40
2022-11-10T00:03:37.045Z,2.40
2022-11-10T00:06:23.088Z,2.40
2022-11-10T00:09:09.855Z,2.40
2022-11-10T00:11:56.509Z,2.40
2022-11-10T00:15:01.414Z,2.50
2022-11-10T00:17:47.654Z,2.60
2022-11-10T00:20:33.843Z,2.60
2022-11-10T00:23:20.303Z,2.50
2022-11-10T00:26:16.119Z,2.60
2022-11-10T00:29:02.240Z,2.60
2022-11-10T00:31:48.449Z,2.70
2022-11-10T00:34:34.646Z,2.70
2022-11-10T00:37:20.700Z,2.60
2022-11-10T00:40:07.038Z,2.40
2022-11-10T00:42:53.270Z,2.40
2022-11-10T00:45:45.126Z,2.40
2022-11-10T00:48:31.222Z,2.20
2022-11-10T00:51:22.517Z,2.20
2022-11-10T00:54:09.138Z,2.20
2022-11-10T00:56:55.606Z,2.20
2022-11-10T00:59:41.788Z,2.30
2022-11-10T01:02:28.741Z,2.40
2022-11-10T01:05:14.658Z,2.40
2022-11-10T01:08:00.650Z,2.30
2022-11-10T01:10:46.923Z,2.30
2022-11-10T01:13:33.923Z,2.40
2022-11-10T01:16:28.895Z,2.50
2022-11-10T01:19:14.831Z,2.50
2022-11-10T01:22:01.829Z,2.50
2022-11-10T01:24:47.767Z,2.50
2022-11-10T01:27:34.018Z,2.40
2022-11-10T01:30:23.406Z,2.70
2022-11-10T01:33:09.553Z,2.60
2022-11-10T01:35:56.765Z,2.50
2022-11-10T01:38:44.293Z,2.50
2022-11-10T01:41:30.334Z,2.60
2022-11-10T01:44:25.003Z,2.70
2022-11-10T01:47:11.368Z,2.70
2022-11-10T01:49:57.498Z,2.70
2022-11-10T01:52:50.727Z,2.70
2022-11-10T01:55:39.141Z,2.70
2022-11-10T01:58:32.561Z,2.60
2022-11-10T02:01:18.768Z,2.60
2022-11-10T02:04:09.146Z,2.70
2022-11-10T02:06:55.401Z,2.80
2022-11-10T02:09:41.844Z,2.90
2022-11-10T02:12:39.715Z,2.90
2022-11-10T02:15:26.758Z,2.80
2022-11-10T02:18:12.556Z,2.70
2022-11-10T02:20:58.964Z,2.80
2022-11-10T02:23:49.428Z,2.80
2022-11-10T02:26:38.090Z,2.90
2022-11-10T02:29:25.924Z,2.90
2022-11-10T02:32:12.189Z,2.90
2022-11-10T02:34:58.299Z,2.80
2022-11-10T02:37:44.415Z,2.80
2022-11-10T02:40:30.570Z,2.70
2022-11-10T02:43:17.994Z,2.70
2022-11-10T02:46:04.428Z,2.80
2022-11-10T02:48:51.095Z,2.90
2022-11-10T02:51:39.930Z,2.80
2022-11-10T02:54:26.066Z,2.90
2022-11-10T02:57:12.006Z,3.00
2022-11-10T02:59:57.963Z,3.10
2022-11-10T03:02:44.476Z,3.00
2022-11-10T03:05:32.327Z,2.90
2022-11-10T03:08:18.570Z,3.00
2022-11-10T03:11:04.634Z,3.10
2022-11-10T03:14:01.652Z,3.00
2022-11-10T03:16:48.622Z,3.00
2022-11-10T03:19:34.745Z,3.10
2022-11-10T03:22:20.890Z,3.00
2022-11-10T03:25:07.139Z,3.00
2022-11-10T03:27:52.953Z,3.10
2022-11-10T03:30:39.906Z,3.00
2022-11-10T03:33:25.960Z,3.00
2022-11-10T03:36:12.005Z,3.10
2022-11-10T03:38:58.336Z,3.10
2022-11-10T03:41:44.704Z,3.10
2022-11-10T03:44:31.595Z,3.10
2022-11-10T03:47:17.696Z,3.00
2022-11-10T03:50:04.262Z,3.00
2022-11-10T03:52:50.396Z,3.00
2022-11-10T03:55:36.332Z,3.00
2022-11-10T03:58:22.331Z,3.10
2022-11-10T04:01:08.804Z,3.10
2022-11-10T04:03:54.679Z,3.10
2022-11-10T04:06:58.843Z,3.10
2022-11-10T04:09:45.368Z,3.20
2022-11-10T04:12:50.038Z,3.20
2022-11-10T04:15:42.169Z,3.20
2022-11-10T04:18:29.845Z,3.10
2022-11-10T04:21:16.363Z,3.30
2022-11-10T04:24:02.593Z,3.20
2022-11-10T04:26:49.071Z,3.20
2022-11-10T04:29:35.307Z,3.20
2022-11-10T04:32:21.318Z,3.20
2022-11-10T04:35:07.581Z,3.30
2022-11-10T04:37:53.417Z,3.30
2022-11-10T04:40:39.613Z,3.40
2022-11-10T04:43:28.930Z,3.50
2022-11-10T04:46:37.572Z,3.40
2022-11-10T04:49:26.581Z,3.30
2022-11-10T04:52:13.660Z,3.40
2022-11-10T04:55:02.545Z,3.50
2022-11-10T04:57:54.049Z,3.40
2022-11-10T05:00:42.688Z,3.50
2022-11-10T05:03:28.746Z,3.40
2022-11-10T05:06:15.849Z,3.50
2022-11-10T05:09:02.030Z,3.50
2022-11-10T05:11:48.221Z,3.50
2022-11-10T05:14:37.156Z,3.50
2022-11-10T05:17:23.570Z,3.50
2022-11-10T05:20:10.064Z,3.60
2022-11-10T05:23:16.859Z,3.60
2022-11-10T05:26:02.906Z,3.70
2022-11-10T05:28:50.344Z,3.70
2022-11-10T05:31:38.844Z,3.60
2022-11-10T05:34:25.132Z,3.60
2022-11-10T05:37:11.071Z,3.60
2022-11-10T05:39:57.655Z,3.60
2022-11-10T05:42:56.022Z,3.60
2022-11-10T05:45:42.596Z,3.70
2022-11-10T05:48:28.862Z,3.60
2022-11-10T05:51:15.302Z,3.70
2022-11-10T05:54:01.619Z,3.70
2022-11-10T05:56:47.850Z,3.80
2022-11-10T05:59:33.929Z,3.80
2022-11-10T06:02:22.290Z,3.80
2022-11-10T06:05:08.714Z,3.90
2022-11-10T06:07:54.683Z,3.90
2022-11-10T06:10:41.520Z,4.00
2022-11-10T06:13:27.790Z,4.10
2022-11-10T06:16:13.967Z,4.10
2022-11-10T06:19:00.189Z,4.00
2022-11-10T06:21:46.455Z,4.10
2022-11-10T06:24:32.600Z,4.00
2022-11-10T06:27:18.645Z,4.10
2022-11-10T06:30:05.417Z,4.00
2022-11-10T06:32:51.677Z,4.10
2022-11-10T06:35:38.011Z,4.10
2022-11-10T06:38:24.229Z,4.10
2022-11-10T06:41:10.266Z,4.10
2022-11-10T06:43:56.364Z,4.10
2022-11-10T06:46:42.630Z,4.10
2022-11-10T06:49:28.710Z,4.10
2022-11-10T06:52:14.859Z,4.20
2022-11-10T06:55:00.855Z,4.10
2022-11-10T06:57:47.334Z,4.20
2022-11-10T07:00:34.535Z,4.20
2022-11-10T07:03:20.794Z,4.20
2022-11-10T07:06:07.399Z,4.20
2022-11-10T07:08:53.423Z,4.20
2022-11-10T07:11:39.315Z,4.20
2022-11-10T07:14:25.541Z,4.30
2022-11-10T07:17:17.896Z,4.40
2022-11-10T07:20:04.404Z,4.40
2022-11-10T07:22:50.356Z,4.40
2022-11-10T07:25:37.321Z,4.40
2022-11-10T07:28:28.086Z,4.30
2022-11-10T07:31:14.821Z,4.40
2022-11-10T07:34:00.880Z,4.50
2022-11-10T07:36:49.914Z,4.50
2022-11-10T07:39:36.185Z,4.60
2022-11-10T07:42:22.407Z,4.60
2022-11-10T07:45:09.222Z,4.50
2022-11-10T07:48:13.648Z,4.40
2022-11-10T07:50:59.946Z,4.60
2022-11-10T07:53:45.886Z,4.50
2022-11-10T07:56:32.642Z,4.60
2022-11-10T07:59:18.507Z,4.70
2022-11-10T08:02:04.508Z,4.70
2022-11-10T08:04:50.784Z,4.70
2022-11-10T08:07:37.168Z,4.70
2022-11-10T08:10:23.216Z,4.80
2022-11-10T08:13:11.640Z,4.80
2022-11-10T08:15:59.589Z,4.90
2022-11-10T08:18:45.799Z,5.00
2022-11-10T08:21:32.043Z,5.10
2022-11-10T08:24:18.240Z,5.00
2022-11-10T08:27:04.661Z,5.00
2022-11-10T08:29:51.024Z,5.10
2022-11-10T08:32:37.212Z,5.10
2022-11-10T08:35:27.633Z,5.10
2022-11-10T08:38:18.748Z,5.00
2022-11-10T08:41:05.156Z,5.10
2022-11-10T08:43:51.023Z,5.20
2022-11-10T08:46:37.225Z,5.10
2022-11-10T08:49:23.461Z,5.20
2022-11-10T08:52:11.401Z,5.20
2022-11-10T08:54:57.646Z,5.30
2022-11-10T08:57:43.756Z,5.30
2022-11-10T09:00:31.628Z,5.40
2022-11-10T09:03:20.888Z,5.30
2022-11-10T09:06:07.150Z,5.40
2022-11-10T09:08:53.397Z,5.50
2022-11-10T09:11:39.401Z,5.50
2022-11-10T09:14:25.545Z,5.60
2022-11-10T09:17:11.789Z,5.70
2022-11-10T09:19:57.615Z,5.70
2022-11-10T09:22:44.031Z,5.70
2022-11-10T09:25:30.276Z,5.60
2022-11-10T09:28:17.783Z,5.60
2022-11-10T09:31:04.084Z,5.80
2022-11-10T09:33:50.193Z,6.00
2022-11-10T09:36:36.609Z,5.90
2022-11-10T09:39:22.714Z,6.00
2022-11-10T09:42:27.909Z,6.10
2022-11-10T09:45:20.461Z,6.10
2022-11-10T09:48:25.606Z,6.10
2022-11-10T09:51:15.870Z,6.20
2022-11-10T09:54:23.355Z,6.20
2022-11-10T09:57:15.504Z,6.30
2022-11-10T10:00:04.133Z,6.40
2022-11-10T10:03:14.902Z,6.40
2022-11-10T10:06:09.413Z,6.40
2022-11-10T10:08:58.792Z,6.50
2022-11-10T10:12:39.083Z,6.50
2022-11-10T10:15:48.904Z,6.50
2022-11-10T10:18:49.296Z,6.30
2022-11-10T10:21:54.783Z,6.40
2022-11-10T10:24:40.831Z,6.50
2022-11-10T10:27:27.557Z,6.40
2022-11-10T10:30:19.952Z,6.40
2022-11-10T10:33:18.690Z,6.50
2022-11-10T10:36:13.139Z,6.50
2022-11-10T10:39:13.259Z,6.70
2022-11-10T10:41:59.694Z,6.80
2022-11-10T10:45:16.908Z,7.10
2022-11-10T10:48:03.239Z,7.20
2022-11-10T10:50:50.468Z,7.30
2022-11-10T10:53:47.975Z,7.40
2022-11-10T10:56:35.119Z,7.90
2022-11-10T10:59:23.511Z,7.80
2022-11-10T11:02:32.019Z,7.90
2022-11-10T11:05:20.005Z,7.80
2022-11-10T11:08:05.939Z,8.00
2022-11-10T11:10:52.312Z,8.00
2022-11-10T11:13:38.455Z,8.00
2022-11-10T11:16:24.830Z,8.00
2022-11-10T11:19:10.879Z,8.00
2022-11-10T11:22:11.045Z,8.00
2022-11-10T11:25:22.695Z,8.00
2022-11-10T11:28:36.339Z,8.00
2022-11-10T11:32:04.571Z,8.00
2022-11-10T11:35:02.640Z,8.00
2022-11-10T11:38:15.918Z,8.00
2022-11-10T11:41:25.603Z,8.00
2022-11-10T11:44:30.744Z,8.10
2022-11-10T11:47:43.484Z,8.00
2022-11-10T11:50:47.408Z,8.10
2022-11-10T11:53:58.016Z,8.20
2022-11-10T11:56:47.493Z,8.10
2022-11-10T12:00:10.482Z,8.20
2022-11-10T12:03:15.231Z,8.20
2022-11-10T12:06:26.441Z,8.20
2022-11-10T12:09:44.888Z,8.40
2022-11-10T12:12:36.914Z,8.40
2022-11-10T12:15:44.893Z,8.70
2022-11-10T12:18:57.205Z,8.80
2022-11-10T12:21:51.756Z,9.20
2022-11-10T12:24:49.574Z,9.10
2022-11-10T12:27:43.524Z,9.10
2022-11-10T12:30:31.083Z,10.60
2022-11-10T12:33:30.945Z,11.90
2022-11-10T12:36:21.118Z,11.90
2022-11-10T12:39:45.652Z,13.70
2022-11-10T12:42:34.088Z,15.10
2022-11-10T12:45:29.769Z,14.30
2022-11-10T12:48:17.764Z,14.00
2022-11-10T12:51:13.573Z,13.10
2022-11-10T12:54:00.285Z,11.80
2022-11-10T12:56:50.330Z,12.20
2022-11-10T12:59:40.261Z,13.30
2022-11-10T13:02:34.014Z,12.60
2022-11-10T13:05:32.294Z,11.90
2022-11-10T13:08:45.373Z,11.70
2022-11-10T13:11:34.196Z,11.40
2022-11-10T13:14:32.885Z,10.90
2022-11-10T13:17:28.080Z,10.50
2022-11-10T13:20:38.958Z,10.00
2022-11-10T13:23:25.314Z,9.60
2022-11-10T13:26:39.915Z,9.20
2022-11-10T13:29:44.036Z,9.10
2022-11-10T13:32:33.527Z,9.00
2022-11-10T13:35:29.030Z,8.80
2022-11-10T13:38:37.889Z,8.60
2022-11-10T13:41:26.698Z,8.50
2022-11-10T13:44:38.323Z,8.40
2022-11-10T13:48:17.949Z,8.40
2022-11-10T13:51:21.678Z,8.30
2022-11-10T13:54:24.031Z,8.20
2022-11-10T13:57:19.432Z,8.20
2022-11-10T14:00:23.869Z,8.20
2022-11-10T14:03:45.101Z,8.10
2022-11-10T14:06:46.821Z,8.00
2022-11-10T14:09:40.141Z,7.80
2022-11-10T14:12:39.730Z,7.80
2022-11-10T14:15:40.671Z,7.80
2022-11-10T14:18:45.316Z,7.70
2022-11-10T14:21:43.428Z,7.50
2022-11-10T14:24:35.597Z,7.50
2022-11-10T14:27:27.844Z,7.50
2022-11-10T14:30:21.816Z,7.40
2022-11-10T14:33:13.521Z,7.40
2022-11-10T14:36:06.336Z,7.20
2022-11-10T14:38:53.521Z,7.10
2022-11-10T14:41:47.703Z,7.10
2022-11-10T14:44:35.510Z,7.10
2022-11-10T14:47:38.661Z,6.90
2022-11-10T14:50:35.406Z,6.80
2022-11-10T14:54:08.568Z,6.90
2022-11-10T14:56:57.158Z,6.90
2022-11-10T14:59:44.062Z,6.70
2022-11-10T15:02:30.430Z,6.70
2022-11-10T15:05:16.781Z,6.60
2022-11-10T15:08:04.692Z,6.50
2022-11-10T15:10:53.277Z,6.40
2022-11-10T15:13:39.873Z,6.50
2022-11-10T15:16:32.493Z,6.60
2022-11-10T15:19:31.313Z,6.70
2022-11-10T15:22:24.289Z,6.50
2022-11-10T15:25:22.107Z,6.30
2022-11-10T15:28:14.212Z,6.20
2022-11-10T15:31:03.883Z,6.20
2022-11-10T15:33:53.422Z,6.00
2022-11-10T15:36:39.925Z,6.10
2022-11-10T15:39:27.457Z,5.90
2022-11-10T15:42:24.688Z,5.60
2022-11-10T15:45:11.042Z,5.60
2022-11-10T15:47:57.562Z,5.60
2022-11-10T15:50:50.551Z,5.50
2022-11-10T15:53:44.469Z,5.30
2022-11-10T15:56:33.277Z,5.20
2022-11-10T15:59:19.649Z,5.10
2022-11-10T16:02:32.272Z,4.90
2022-11-10T16:05:18.661Z,4.90
2022-11-10T16:08:13.730Z,4.70
2022-11-10T16:11:00.249Z,4.60
2022-11-10T16:13:47.948Z,4.60
2022-11-10T16:16:34.142Z,4.60
2022-11-10T16:19:20.326Z,4.60
2022-11-10T16:22:09.566Z,4.40
2022-11-10T16:24:56.124Z,4.40
2022-11-10T16:27:42.171Z,4.50
2022-11-10T16:30:28.589Z,4.30
2022-11-10T16:33:19.545Z,4.30
2022-11-10T16:36:06.198Z,4.40
2022-11-10T16:38:53.179Z,4.30
2022-11-10T16:41:41.396Z,4.20
2022-11-10T16:44:27.963Z,4.20
2022-11-10T16:47:21.659Z,4.10
2022-11-10T16:50:32.382Z,4.10
2022-11-10T16:53:21.744Z,4.10
2022-11-10T16:56:14.176Z,4.00
2022-11-10T16:59:00.164Z,4.00
2022-11-10T17:01:47.512Z,4.00
2022-11-10T17:04:33.573Z,4.00
2022-11-10T17:07:23.692Z,4.00
2022-11-10T17:10:19.162Z,4.00
2022-11-10T17:13:05.680Z,3.90
2022-11-10T17:16:08.844Z,3.90
2022-11-10T17:18:56.699Z,3.90
2022-11-10T17:21:43.066Z,3.70
2022-11-10T17:24:30.894Z,3.70
2022-11-10T17:27:18.818Z,3.70
2022-11-10T17:30:05.769Z,3.70
2022-11-10T17:33:09.554Z,3.80
2022-11-10T17:36:11.537Z,3.70
2022-11-10T17:38:58.255Z,3.90
2022-11-10T17:41:45.445Z,4.00
2022-11-10T17:44:31.853Z,4.00
2022-11-10T17:47:17.903Z,3.90
2022-11-10T17:50:04.272Z,3.80
2022-11-10T17:52:54.524Z,4.00
2022-11-10T17:55:40.894Z,4.10
2022-11-10T17:58:29.842Z,4.00
2022-11-10T18:01:21.863Z,3.90
2022-11-10T18:04:12.821Z,3.80
2022-11-10T18:06:59.103Z,3.90
2022-11-10T18:09:47.155Z,3.90
2022-11-10T18:12:36.345Z,3.90
2022-11-10T18:15:22.452Z,3.90
2022-11-10T18:18:11.920Z,3.90
2022-11-10T18:20:58.283Z,3.80
2022-11-10T18:23:44.798Z,3.70
2022-11-10T18:26:31.169Z,3.70
2022-11-10T18:29:20.213Z,3.70
2022-11-10T18:32:08.889Z,3.70
2022-11-10T18:34:54.893Z,3.70
2022-11-10T18:37:40.882Z,3.70
2022-11-10T18:40:27.332Z,3.70
2022-11-10T18:43:13.958Z,3.70
2022-11-10T18:46:00.239Z,3.70
2022-11-10T18:48:47.384Z,3.70
2022-11-10T18:51:34.321Z,3.70
2022-11-10T18:54:23.464Z,3.70
2022-11-10T18:57:16.451Z,3.60
2022-11-10T19:00:03.931Z,3.60
2022-11-10T19:02:50.109Z,3.60
2022-11-10T19:05:38.698Z,3.70
2022-11-10T19:08:26.724Z,3.50
2022-11-10T19:11:16.712Z,3.60
2022-11-10T19:14:02.795Z,3.50
2022-11-10T19:16:49.132Z,3.50
2022-11-10T19:19:35.223Z,3.50
2022-11-10T19:22:22.209Z,3.50
2022-11-10T19:25:09.316Z,3.50
2022-11-10T19:27:56.970Z,3.50
2022-11-10T19:30:46.323Z,3.50
2022-11-10T19:33:34.776Z,3.40
2022-11-10T19:36:26.284Z,3.30
2022-11-10T19:39:16.042Z,3.30
2022-11-10T19:42:02.097Z,3.40
2022-11-10T19:44:48.200Z,3.50
2022-11-10T19:47:38.183Z,3.50
2022-11-10T19:50:25.203Z,3.60
2022-11-10T19:53:12.494Z,3.60
2022-11-10T19:56:04.620Z,3.60
2022-11-10T19:58:51.396Z,3.70
2022-11-10T20:01:37.760Z,3.50
2022-11-10T20:04:24.432Z,3.30
2022-11-10T20:07:29.120Z,3.20
2022-11-10T20:10:16.905Z,3.20
2022-11-10T20:13:03.088Z,3.10
2022-11-10T20:15:49.088Z,2.90
2022-11-10T20:18:37.624Z,3.10
2022-11-10T20:21:27.305Z,3.00
2022-11-10T20:24:13.782Z,2.90
2022-11-10T20:26:59.915Z,2.80
2022-11-10T20:29:46.217Z,2.70
2022-11-10T20:32:32.490Z,2.70
2022-11-10T20:35:18.572Z,2.70
2022-11-10T20:38:07.517Z,2.70
2022-11-10T20:41:10.530Z,2.80
2022-11-10T20:43:58.164Z,2.90
2022-11-10T20:46:54.581Z,3.00
2022-11-10T20:49:41.387Z,2.90
2022-11-10T20:52:32.155Z,2.80
2022-11-10T20:55:22.103Z,2.70
2022-11-10T20:58:16.781Z,2.60
2022-11-10T21:01:08.247Z,2.60
2022-11-10T21:03:55.131Z,2.50
2022-11-10T21:06:41.344Z,2.50
2022-11-10T21:09:30.474Z,2.50
2022-11-10T21:12:35.100Z,2.50
2022-11-10T21:15:22.468Z,2.50
2022-11-10T21:18:08.417Z,2.50
2022-11-10T21:20:54.808Z,2.50
2022-11-10T21:23:40.946Z,2.60
2022-11-10T21:26:27.680Z,2.60
2022-11-10T21:29:13.923Z,2.60
2022-11-10T21:32:00.284Z,2.60
2022-11-10T21:34:47.316Z,2.50
2022-11-10T21:37:34.345Z,2.60
2022-11-10T21:40:22.687Z,2.70
2022-11-10T21:43:09.188Z,2.60
2022-11-10T21:45:58.908Z,2.60
2022-11-10T21:48:45.163Z,2.40
2022-11-10T21:51:31.181Z,2.40
2022-11-10T21:54:17.151Z,2.50
2022-11-10T21:57:03.349Z,2.40
2022-11-10T21:59:49.421Z,2.60
2022-11-10T22:02:36.116Z,2.50
2022-11-10T22:05:22.436Z,2.30
2022-11-10T22:08:08.478Z,2.30
2022-11-10T22:11:13.018Z,2.40
2022-11-10T22:14:34.383Z,2.40
2022-11-10T22:17:39.427Z,2.40
2022-11-10T22:20:25.621Z,2.40
2022-11-10T22:23:12.353Z,2.20
2022-11-10T22:25:58.317Z,2.20
2022-11-10T22:28:45.977Z,2.20
2022-11-10T22:31:33.914Z,2.40
2022-11-10T22:34:22.457Z,2.30
2022-11-10T22:37:08.492Z,2.40
2022-11-10T22:40:13.206Z,2.50
2022-11-10T22:43:17.698Z,2.60
2022-11-10T22:46:04.028Z,2.50
2022-11-10T22:48:50.015Z,2.40
2022-11-10T22:51:37.353Z,2.40
2022-11-10T22:54:24.147Z,2.40
2022-11-10T22:57:10.354Z,2.40
2022-11-10T22:59:56.288Z,2.40
2022-11-10T23:02:42.196Z,2.50
2022-11-10T23:05:29.846Z,2.50
2022-11-10T23:08:16.330Z,2.30
2022-11-10T23:11:05.420Z,2.30
2022-11-10T23:13:52.006Z,2.40
2022-11-10T23:16:38.478Z,2.20
2022-11-10T23:19:24.544Z,2.10
2022-11-10T23:22:10.791Z,2.20
2022-11-10T23:24:57.591Z,2.30
2022-11-10T23:27:44.082Z,2.40
2022-11-10T23:30:30.222Z,2.50
2022-11-10T23:33:16.442Z,2.60
2022-11-10T23:36:03.303Z,2.60
2022-11-10T23:38:49.941Z,2.60
2022-11-10T23:41:36.275Z,2.40
2022-11-10T23:44:22.344Z,2.40
2022-11-10T23:47:08.311Z,2.30
2022-11-10T23:49:54.249Z,2.20
2022-11-10T23:52:40.151Z,2.20
2022-11-10T23:55:26.494Z,2.20
2022-11-10T23:58:13.304Z,2.20
